createdAt,value
2022-12-08T00:02:09.372Z,11.75
2022-12-08T00:04:35.987Z,14.17
2022-12-08T00:07:03.993Z,10.80
2022-12-08T00:09:38.749Z,12.52
2022-12-08T00:12:07.730Z,13.82
2022-12-08T00:14:37.319Z,13.88
2022-12-08T00:17:04.657Z,15.63
2022-12-08T00:19:31.841Z,12.77
2022-12-08T00:21:58.691Z,15.40
2022-12-08T00:24:32.229Z,18.20
2022-12-08T00:26:58.744Z,13.93
2022-12-08T00:29:25.479Z,12.50
2022-12-08T00:31:52.295Z,12.75
2022-12-08T00:34:18.991Z,14.90
2022-12-08T00:36:46.280Z,12.88
2022-12-08T00:39:14.805Z,14.10
2022-12-08T00:41:43.077Z,12.83
2022-12-08T00:44:11.881Z,12.85
2022-12-08T00:46:38.552Z,15.40
2022-12-08T00:49:06.032Z,15.77
2022-12-08T00:51:32.906Z,16.45
2022-12-08T00:53:59.600Z,14.63
2022-12-08T00:56:26.765Z,17.58
2022-12-08T00:58:54.852Z,15.43
2022-12-08T01:01:21.734Z,14.75
2022-12-08T01:03:48.629Z,16.98
2022-12-08T01:06:15.386Z,17.43
2022-12-08T01:08:42.501Z,13.88
2022-12-08T01:11:11.866Z,16.45
2022-12-08T01:13:38.813Z,14.65
2022-12-08T01:16:07.245Z,14.70
2022-12-08T01:18:34.539Z,13.23
2022-12-08T01:21:02.835Z,13.02
2022-12-08T01:23:29.327Z,11.40
2022-12-08T01:25:55.776Z,10.57
2022-12-08T01:28:22.568Z,13.65
2022-12-08T01:30:49.043Z,12.07
2022-12-08T01:33:16.945Z,13.75
2022-12-08T01:35:43.425Z,17.17
2022-12-08T01:38:09.873Z,14.13
2022-12-08T01:40:36.616Z,12.40
2022-12-08T01:43:03.097Z,10.97
2022-12-08T01:45:31.401Z,13.27
2022-12-08T01:48:03.012Z,12.52
2022-12-08T01:50:32.438Z,11.23
2022-12-08T01:53:04.141Z,15.85
2022-12-08T01:55:35.566Z,12.13
2022-12-08T01:58:11.458Z,16.05
2022-12-08T02:00:37.991Z,13.20
2022-12-08T02:03:08.984Z,14.13
2022-12-08T02:05:39.546Z,12.02
2022-12-08T02:08:08.444Z,12.03
2022-12-08T02:10:37.599Z,15.55
2022-12-08T02:13:05.468Z,16.25
2022-12-08T02:15:39.442Z,14.30
2022-12-08T02:18:24.149Z,16.70
2022-12-08T02:21:01.388Z,13.70
2022-12-08T02:23:37.211Z,14.38
2022-12-08T02:26:30.871Z,12.88
2022-12-08T02:29:18.605Z,13.30
2022-12-08T02:32:01.968Z,16.70
2022-12-08T02:34:34.235Z,15.00
2022-12-08T02:37:07.895Z,13.43
2022-12-08T02:39:42.152Z,14.32
2022-12-08T02:42:17.507Z,14.65
2022-12-08T02:44:51.673Z,16.08
2022-12-08T02:47:20.252Z,15.57
2022-12-08T02:49:48.114Z,14.55
2022-12-08T02:52:40.692Z,16.67
2022-12-08T02:55:11.485Z,15.07
2022-12-08T02:57:53.426Z,14.05
2022-12-08T03:00:22.339Z,12.30
2022-12-08T03:03:03.910Z,14.60
2022-12-08T03:05:55.682Z,15.10
2022-12-08T03:08:28.878Z,12.30
2022-12-08T03:11:01.224Z,12.45
2022-12-08T03:13:34.602Z,14.90
2022-12-08T03:16:04.536Z,12.38
2022-12-08T03:18:34.050Z,14.13
2022-12-08T03:21:03.303Z,16.17
2022-12-08T03:23:31.118Z,14.38
2022-12-08T03:26:04.664Z,13.60
2022-12-08T03:28:31.698Z,14.88
2022-12-08T03:31:02.689Z,14.77
2022-12-08T03:33:33.143Z,13.13
2022-12-08T03:36:01.519Z,10.82
2022-12-08T03:38:37.671Z,12.23
2022-12-08T03:41:04.444Z,12.82
2022-12-08T03:43:30.946Z,11.82
2022-12-08T03:45:57.607Z,10.25
2022-12-08T03:48:24.128Z,10.68
2022-12-08T03:50:50.749Z,12.20
2022-12-08T03:53:17.227Z,10.70
2022-12-08T03:55:45.237Z,12.75
2022-12-08T03:58:11.679Z,13.02
2022-12-08T04:00:38.177Z,11.50
2022-12-08T04:03:04.782Z,11.93
2022-12-08T04:05:31.476Z,9.57
2022-12-08T04:07:58.178Z,12.25
2022-12-08T04:10:24.788Z,8.07
2022-12-08T04:12:52.855Z,11.30
2022-12-08T04:15:19.383Z,10.03
2022-12-08T04:17:46.072Z,8.02
2022-12-08T04:20:12.828Z,8.40
2022-12-08T04:22:39.436Z,8.63
2022-12-08T04:25:07.121Z,8.23
2022-12-08T04:27:33.610Z,9.10
2022-12-08T04:30:01.719Z,8.90
2022-12-08T04:32:28.515Z,8.65
2022-12-08T04:34:55.183Z,10.95
2022-12-08T04:37:21.644Z,9.32
2022-12-08T04:39:48.238Z,9.27
2022-12-08T04:42:14.801Z,8.18
2022-12-08T04:44:41.262Z,9.45
2022-12-08T04:47:09.250Z,8.93
2022-12-08T04:49:35.749Z,8.65
2022-12-08T04:52:02.314Z,8.07
2022-12-08T04:54:28.804Z,8.13
2022-12-08T04:56:55.355Z,10.55
2022-12-08T04:59:21.909Z,9.77
2022-12-08T05:01:48.508Z,7.95
2022-12-08T05:04:16.500Z,8.87
2022-12-08T05:06:42.962Z,11.13
2022-12-08T05:09:09.477Z,8.20
2022-12-08T05:11:35.921Z,7.80
2022-12-08T05:14:02.488Z,8.23
2022-12-08T05:16:29.012Z,9.63
2022-12-08T05:18:55.702Z,8.63
2022-12-08T05:21:23.617Z,7.13
2022-12-08T05:23:50.144Z,7.50
2022-12-08T05:26:16.594Z,8.55
2022-12-08T05:28:44.080Z,7.80
2022-12-08T05:31:11.618Z,8.23
2022-12-08T05:33:38.310Z,8.48
2022-12-08T05:36:05.114Z,6.78
2022-12-08T05:38:33.113Z,8.55
2022-12-08T05:40:59.555Z,9.87
2022-12-08T05:43:27.071Z,9.93
2022-12-08T05:45:53.645Z,8.57
2022-12-08T05:48:20.501Z,13.05
2022-12-08T05:50:47.375Z,13.57
2022-12-08T05:53:13.883Z,11.17
2022-12-08T05:55:42.086Z,13.30
2022-12-08T05:58:13.133Z,12.32
2022-12-08T06:00:39.928Z,10.85
2022-12-08T06:03:06.734Z,11.48
2022-12-08T06:05:33.929Z,10.77
2022-12-08T06:08:00.752Z,12.13
2022-12-08T06:10:27.693Z,12.30
2022-12-08T06:12:55.533Z,12.45
2022-12-08T06:15:22.153Z,14.48
2022-12-08T06:17:48.741Z,12.00
2022-12-08T06:20:15.358Z,13.25
2022-12-08T06:22:41.921Z,12.05
2022-12-08T06:25:10.262Z,15.10
2022-12-08T06:27:36.980Z,13.70
2022-12-08T06:30:06.678Z,12.43
2022-12-08T06:32:33.425Z,13.68
2022-12-08T06:35:03.090Z,17.52
2022-12-08T06:37:29.579Z,14.15
2022-12-08T06:39:56.189Z,15.27
2022-12-08T06:45:42.575Z,16.40
2022-12-08T06:48:09.103Z,13.52
2022-12-08T06:50:35.572Z,14.55
2022-12-08T06:53:05.361Z,13.73
2022-12-08T06:58:20.251Z,12.15
2022-12-08T07:00:48.315Z,11.95
2022-12-08T07:03:14.932Z,11.20
2022-12-08T07:05:41.526Z,16.40
2022-12-08T07:08:09.452Z,12.67
2022-12-08T07:10:36.432Z,11.82
2022-12-08T07:13:03.162Z,11.80
2022-12-08T07:15:32.835Z,9.77
2022-12-08T07:18:00.844Z,12.30
2022-12-08T07:20:27.796Z,11.73
2022-12-08T07:22:54.328Z,13.30
2022-12-08T07:25:21.142Z,11.23
2022-12-08T07:27:48.061Z,10.50
2022-12-08T07:30:14.721Z,11.40
2022-12-08T07:32:41.270Z,10.50
2022-12-08T07:35:09.954Z,12.55
2022-12-08T07:37:37.734Z,10.98
2022-12-08T07:40:05.965Z,11.90
2022-12-08T07:42:33.053Z,10.60
2022-12-08T07:44:59.559Z,10.90
2022-12-08T07:47:26.762Z,11.20
2022-12-08T07:49:53.621Z,9.93
2022-12-08T07:52:21.479Z,10.38
2022-12-08T07:54:48.005Z,9.40
2022-12-08T07:57:15.304Z,9.37
2022-12-08T07:59:41.844Z,11.00
2022-12-08T08:02:24.407Z,11.00
2022-12-08T08:04:52.500Z,10.55
2022-12-08T08:07:19.068Z,12.35
2022-12-08T08:09:47.053Z,9.03
2022-12-08T08:15:01.118Z,11.82
2022-12-08T08:17:28.604Z,9.93
2022-12-08T08:19:55.233Z,11.65
2022-12-08T08:22:21.738Z,10.37
2022-12-08T08:24:49.665Z,9.90
2022-12-08T08:27:16.211Z,12.10
2022-12-08T08:29:42.676Z,13.23
2022-12-08T08:32:09.200Z,11.98
2022-12-08T08:34:35.905Z,10.93
2022-12-08T08:37:02.580Z,9.07
2022-12-08T08:39:29.375Z,14.35
2022-12-08T08:41:57.685Z,9.27
2022-12-08T08:44:24.201Z,8.73
2022-12-08T08:46:50.701Z,8.20
2022-12-08T08:49:17.272Z,9.07
2022-12-08T08:51:43.851Z,9.05
2022-12-08T08:54:10.573Z,7.90
2022-12-08T08:56:37.177Z,10.60
2022-12-08T08:59:05.144Z,9.70
2022-12-08T09:01:31.791Z,9.75
2022-12-08T09:03:58.490Z,9.77
2022-12-08T09:06:25.699Z,10.88
2022-12-08T09:08:52.323Z,10.98
2022-12-08T09:11:18.900Z,10.60
2022-12-08T09:13:47.911Z,11.88
2022-12-08T09:16:16.410Z,18.65
2022-12-08T09:18:42.976Z,15.05
2022-12-08T09:21:11.958Z,11.38
2022-12-08T09:23:39.208Z,13.03
2022-12-08T09:26:05.800Z,16.83
2022-12-08T09:28:32.412Z,12.52
2022-12-08T09:30:59.012Z,14.20
2022-12-08T09:33:26.915Z,17.05
2022-12-08T09:35:53.478Z,14.17
2022-12-08T09:38:20.013Z,16.98
2022-12-08T09:40:50.842Z,22.20
2022-12-08T09:43:40.395Z,18.92
2022-12-08T09:46:16.448Z,17.33
2022-12-08T09:48:49.789Z,13.53
2022-12-08T09:51:16.361Z,16.63
2022-12-08T09:53:47.261Z,17.73
2022-12-08T09:56:16.976Z,15.45
2022-12-08T09:58:49.697Z,17.33
2022-12-08T10:01:16.808Z,17.07
2022-12-08T10:03:44.740Z,19.30
2022-12-08T10:06:24.672Z,20.13
2022-12-08T10:08:59.337Z,20.27
2022-12-08T10:11:32.132Z,17.13
2022-12-08T10:14:08.782Z,17.03
2022-12-08T10:16:40.725Z,15.30
2022-12-08T10:19:16.003Z,15.38
2022-12-08T10:21:42.556Z,14.98
2022-12-08T10:24:15.798Z,14.80
2022-12-08T10:26:43.059Z,19.33
2022-12-08T10:29:13.059Z,14.27
2022-12-08T10:31:40.273Z,13.65
2022-12-08T10:34:15.909Z,15.48
2022-12-08T10:36:52.010Z,12.60
2022-12-08T10:39:33.638Z,13.20
2022-12-08T10:42:02.083Z,12.30
2022-12-08T10:44:29.298Z,14.45
2022-12-08T10:46:55.958Z,16.70
2022-12-08T10:49:29.080Z,15.65
2022-12-08T10:51:55.590Z,15.57
2022-12-08T10:54:27.752Z,11.65
2022-12-08T10:56:55.603Z,10.93
2022-12-08T10:59:22.654Z,9.13
2022-12-08T11:01:50.961Z,9.30
2022-12-08T11:04:19.879Z,14.03
2022-12-08T11:06:49.057Z,12.20
2022-12-08T11:09:25.719Z,12.63
2022-12-08T11:11:54.103Z,11.73
2022-12-08T11:14:23.958Z,12.07
2022-12-08T11:16:51.674Z,12.10
2022-12-08T11:19:19.406Z,10.00
2022-12-08T11:21:46.295Z,14.32
2022-12-08T11:24:23.158Z,12.20
2022-12-08T11:26:53.723Z,13.43
2022-12-08T11:29:20.855Z,14.10
2022-12-08T11:31:51.908Z,12.60
2022-12-08T11:34:23.957Z,13.52
2022-12-08T11:36:52.660Z,13.27
2022-12-08T11:39:22.415Z,13.60
2022-12-08T11:41:50.624Z,16.40
2022-12-08T11:44:29.221Z,14.05
2022-12-08T11:46:58.349Z,14.73
2022-12-08T11:49:33.294Z,9.45
2022-12-08T11:52:05.104Z,11.25
2022-12-08T11:54:35.933Z,11.80
2022-12-08T11:57:05.602Z,12.63
2022-12-08T11:59:34.576Z,12.05
2022-12-08T12:02:04.367Z,11.25
2022-12-08T12:04:37.777Z,12.75
2022-12-08T12:07:28.871Z,13.47
2022-12-08T12:10:11.794Z,15.27
2022-12-08T12:12:55.807Z,16.08
2022-12-08T12:15:43.596Z,13.50
2022-12-08T12:18:17.190Z,11.85
2022-12-08T12:20:52.410Z,13.37
2022-12-08T12:23:24.278Z,13.27
2022-12-08T12:25:59.155Z,10.93
2022-12-08T12:28:29.085Z,13.77
2022-12-08T12:31:07.072Z,11.20
2022-12-08T12:33:34.729Z,10.33
2022-12-08T12:36:05.330Z,11.20
2022-12-08T12:38:34.964Z,10.27
2022-12-08T12:41:07.342Z,11.38
2022-12-08T12:43:36.002Z,11.77
2022-12-08T12:46:53.166Z,9.20
2022-12-08T12:50:02.625Z,9.57
2022-12-08T12:52:48.391Z,10.15
2022-12-08T12:55:49.357Z,13.80
2022-12-08T12:58:36.515Z,8.95
2022-12-08T13:01:40.286Z,11.17
2022-12-08T13:04:09.078Z,7.03
2022-12-08T13:06:39.283Z,8.50
2022-12-08T13:09:06.526Z,12.98
2022-12-08T13:11:48.010Z,12.38
2022-12-08T13:14:30.907Z,9.50
2022-12-08T13:17:00.813Z,12.77
2022-12-08T13:19:40.216Z,9.45
2022-12-08T13:22:43.807Z,11.27
2022-12-08T13:25:59.372Z,9.55
2022-12-08T13:28:28.344Z,9.00
2022-12-08T13:30:58.217Z,9.07
2022-12-08T13:33:29.205Z,11.25
2022-12-08T13:36:14.495Z,8.40
2022-12-08T13:38:44.190Z,8.80
2022-12-08T13:41:17.249Z,9.50
2022-12-08T13:44:10.296Z,12.50
2022-12-08T13:56:51.612Z,10.27
2022-12-08T13:58:20.017Z,14.35
2022-12-08T14:01:09.006Z,7.22
2022-12-08T14:04:04.608Z,7.18
2022-12-08T14:06:36.913Z,8.93
2022-12-08T14:09:11.205Z,14.17
2022-12-08T14:11:40.216Z,9.90
2022-12-08T14:14:09.605Z,7.68
2022-12-08T14:16:39.001Z,7.18
2022-12-08T14:19:17.266Z,7.88
2022-12-08T14:21:47.253Z,7.03
2022-12-08T14:24:13.807Z,8.40
2022-12-08T14:26:40.703Z,7.10
2022-12-08T14:29:08.242Z,10.40
2022-12-08T14:31:35.035Z,9.80
2022-12-08T14:34:01.529Z,7.70
2022-12-08T14:36:29.485Z,9.25
2022-12-08T14:38:56.749Z,8.82
2022-12-08T14:41:38.340Z,9.32
2022-12-08T14:44:23.175Z,8.15
2022-12-08T14:47:05.688Z,10.03
2022-12-08T14:49:34.063Z,12.80
2022-12-08T14:52:03.111Z,7.47
2022-12-08T14:54:31.072Z,8.02
2022-12-08T14:57:00.399Z,10.05
2022-12-08T14:59:29.241Z,9.40
2022-12-08T15:02:12.202Z,8.52
2022-12-08T15:04:41.262Z,7.25
2022-12-08T15:07:14.519Z,11.23
2022-12-08T15:09:42.665Z,8.35
2022-12-08T15:12:26.795Z,7.37
2022-12-08T15:14:56.150Z,8.82
2022-12-08T15:17:31.527Z,11.25
2022-12-08T15:19:59.210Z,11.00
2022-12-08T15:22:29.396Z,11.25
2022-12-08T15:24:56.697Z,7.63
2022-12-08T15:27:24.910Z,11.43
2022-12-08T15:29:51.863Z,9.80
2022-12-08T15:32:20.642Z,12.52
2022-12-08T15:34:47.356Z,8.23
2022-12-08T15:37:20.366Z,12.67
2022-12-08T15:39:48.411Z,12.90
2022-12-08T15:42:15.089Z,12.07
2022-12-08T15:44:41.939Z,14.93
2022-12-08T15:47:15.981Z,12.13
2022-12-08T15:49:43.783Z,11.40
2022-12-08T15:52:13.930Z,9.27
2022-12-08T15:54:41.051Z,14.35
2022-12-08T15:57:20.411Z,8.30
2022-12-08T15:59:52.855Z,11.77
2022-12-08T16:02:22.599Z,8.53
2022-12-08T16:07:38.731Z,13.05
2022-12-08T16:10:07.693Z,12.57
2022-12-08T16:18:16.299Z,11.27
2022-12-08T16:23:42.938Z,10.48
2022-12-08T16:28:59.805Z,11.47
2022-12-08T16:31:28.739Z,8.43
2022-12-08T16:33:55.254Z,11.90
2022-12-08T16:36:30.630Z,8.00
2022-12-08T16:39:19.147Z,9.18
2022-12-08T16:45:44.989Z,9.25
2022-12-08T16:48:15.035Z,8.88
2022-12-08T16:54:20.401Z,9.40
2022-12-08T17:00:12.272Z,13.23
2022-12-08T17:02:43.166Z,11.55
2022-12-08T17:05:16.330Z,9.13
2022-12-08T17:07:57.408Z,6.05
2022-12-08T17:10:35.771Z,8.47
2022-12-08T17:13:41.868Z,9.57
2022-12-08T17:16:37.877Z,13.57
2022-12-08T17:49:23.839Z,9.10
2022-12-08T18:24:19.827Z,12.82
2022-12-08T18:33:51.200Z,10.33
2022-12-08T18:39:41.837Z,9.73
2022-12-08T18:43:04.657Z,10.70
2022-12-08T18:52:53.109Z,16.30
2022-12-08T18:59:04.755Z,9.68
2022-12-08T19:04:54.436Z,11.03
2022-12-08T19:33:41.329Z,9.90
2022-12-08T19:37:00.864Z,9.97
2022-12-08T19:39:28.552Z,9.15
2022-12-08T19:41:55.414Z,10.93
2022-12-08T19:44:24.554Z,13.55
2022-12-08T19:46:52.631Z,13.18
2022-12-08T19:49:20.604Z,10.53
2022-12-08T19:51:47.108Z,12.77
2022-12-08T19:54:13.639Z,13.80
2022-12-08T19:56:40.244Z,14.13
2022-12-08T19:59:13.686Z,13.85
2022-12-08T20:01:40.355Z,12.87
2022-12-08T20:04:08.592Z,11.35
2022-12-08T20:06:36.559Z,10.63
2022-12-08T20:12:30.446Z,15.23
2022-12-08T20:14:58.089Z,9.43
2022-12-08T20:17:26.823Z,13.32
2022-12-08T20:19:54.520Z,8.38
2022-12-08T20:22:23.086Z,8.65
2022-12-08T20:24:57.238Z,8.95
2022-12-08T20:27:27.751Z,7.13
2022-12-08T20:29:54.557Z,14.70
2022-12-08T20:32:21.077Z,10.50
2022-12-08T20:34:47.663Z,10.82
2022-12-08T20:37:20.487Z,9.43
2022-12-08T20:39:49.266Z,9.93
2022-12-08T20:42:17.634Z,9.52
2022-12-08T20:44:46.785Z,13.50
2022-12-08T20:47:13.962Z,11.25
2022-12-08T20:49:40.654Z,16.40
2022-12-08T20:52:08.048Z,20.17
2022-12-08T20:54:35.172Z,14.05
2022-12-08T20:57:03.280Z,12.68
2022-12-08T20:59:30.471Z,10.52
2022-12-08T21:01:57.520Z,10.45
2022-12-08T21:04:24.196Z,10.20
2022-12-08T21:06:50.993Z,8.45
2022-12-08T21:09:17.690Z,9.68
2022-12-08T21:11:45.062Z,10.13
2022-12-08T21:14:13.175Z,16.25
2022-12-08T21:16:40.109Z,10.10
2022-12-08T21:19:06.722Z,9.73
2022-12-08T21:21:33.526Z,13.90
2022-12-08T21:24:00.241Z,12.18
2022-12-08T21:26:26.996Z,9.10
2022-12-08T21:28:54.346Z,8.73
2022-12-08T21:31:22.439Z,10.07
2022-12-08T21:33:49.327Z,9.13
2022-12-08T21:36:18.053Z,10.68
2022-12-08T21:38:46.198Z,9.90
2022-12-08T21:44:46.439Z,11.95
2022-12-08T21:47:14.697Z,12.52
2022-12-08T21:49:42.872Z,11.23
2022-12-08T21:52:09.772Z,13.73
2022-12-08T21:54:39.315Z,15.40
2022-12-08T21:57:09.334Z,11.98
2022-12-08T21:59:36.580Z,12.65
2022-12-08T22:02:03.701Z,9.52
2022-12-08T22:04:32.030Z,10.18
2022-12-08T22:07:06.248Z,9.17
2022-12-08T22:09:33.018Z,11.98
2022-12-08T22:11:59.994Z,10.57
2022-12-08T22:14:26.699Z,12.00
2022-12-08T22:16:53.505Z,11.80
2022-12-08T22:19:20.314Z,11.53
2022-12-08T22:21:48.526Z,13.20
2022-12-08T22:24:14.988Z,8.88
2022-12-08T22:26:41.735Z,11.02
2022-12-08T22:29:11.084Z,11.60
2022-12-08T22:31:37.847Z,9.60
2022-12-08T22:34:04.691Z,10.75
2022-12-08T22:36:35.249Z,15.43
2022-12-08T22:39:04.913Z,10.65
2022-12-08T22:41:40.794Z,14.70
2022-12-08T22:44:08.791Z,11.47
2022-12-08T22:46:35.822Z,11.38
2022-12-08T22:49:03.181Z,12.13
2022-12-08T22:51:30.626Z,9.48
2022-12-08T22:53:57.780Z,10.73
2022-12-08T22:56:26.466Z,10.80
2022-12-08T22:58:54.749Z,12.25
2022-12-08T23:01:24.106Z,15.13
2022-12-08T23:03:51.029Z,10.68
2022-12-08T23:06:19.117Z,12.90
2022-12-08T23:08:46.526Z,12.13
2022-12-08T23:11:20.615Z,12.57
2022-12-08T23:13:53.306Z,9.05
2022-12-08T23:16:21.046Z,11.90
2022-12-08T23:18:48.555Z,11.77
2022-12-08T23:21:18.114Z,10.70
2022-12-08T23:23:45.701Z,11.80
2022-12-08T23:26:17.145Z,11.15
2022-12-08T23:28:44.309Z,15.75
2022-12-08T23:31:14.016Z,17.05
2022-12-08T23:33:41.007Z,10.90
2022-12-08T23:36:12.305Z,12.23
2022-12-08T23:38:41.774Z,12.60
2022-12-08T23:41:11.807Z,12.00
2022-12-08T23:43:44.870Z,11.80
2022-12-08T23:46:15.369Z,13.97
2022-12-08T23:48:43.775Z,11.95
2022-12-08T23:51:11.644Z,12.50
2022-12-08T23:53:39.038Z,14.60
2022-12-08T23:56:08.313Z,12.52
2022-12-08T23:58:38.050Z,16.00
